createdAt,value
2023-01-25T00:03:36.931Z,3.70
2023-01-25T00:08:38.509Z,3.72
2023-01-25T00:13:39.881Z,3.42
2023-01-25T00:18:41.258Z,3.78
2023-01-25T00:23:42.643Z,3.53
2023-01-25T00:28:48.270Z,3.67
2023-01-25T00:33:51.221Z,3.00
2023-01-25T00:38:53.470Z,3.40
2023-01-25T00:43:54.892Z,3.40
2023-01-25T00:48:56.349Z,3.00
2023-01-25T00:53:57.713Z,3.83
2023-01-25T00:58:59.111Z,3.80
2023-01-25T01:04:00.494Z,3.20
2023-01-25T01:09:02.094Z,3.42
2023-01-25T01:14:03.467Z,3.25
2023-01-25T01:19:04.850Z,3.40
2023-01-25T01:24:06.513Z,3.30
2023-01-25T01:29:10.248Z,3.20
2023-01-25T01:34:13.171Z,3.13
2023-01-25T01:39:14.614Z,3.20
2023-01-25T01:44:22.396Z,2.92
2023-01-25T01:49:27.582Z,3.38
2023-01-25T01:54:43.535Z,2.67
2023-01-25T02:00:03.774Z,2.80
2023-01-25T02:05:06.163Z,3.17
2023-01-25T02:10:09.835Z,2.85
2023-01-25T02:15:11.773Z,3.17
2023-01-25T02:20:33.013Z,3.08
2023-01-25T02:25:34.649Z,3.00
2023-01-25T02:30:36.022Z,2.88
2023-01-25T02:35:44.433Z,3.00
2023-01-25T02:40:48.813Z,3.03
2023-01-25T02:45:52.648Z,2.88
2023-01-25T02:50:54.087Z,2.88
2023-01-25T02:55:55.522Z,3.30
2023-01-25T03:00:56.894Z,3.15
2023-01-25T03:05:58.407Z,2.70
2023-01-25T03:11:00.624Z,3.00
2023-01-25T03:16:06.823Z,3.10
2023-01-25T03:21:09.839Z,3.30
2023-01-25T03:26:19.207Z,2.50
2023-01-25T03:31:20.751Z,2.88
2023-01-25T03:36:22.320Z,2.78
2023-01-25T03:41:23.772Z,3.08
2023-01-25T03:46:25.505Z,2.60
2023-01-25T03:51:26.976Z,2.80
2023-01-25T03:56:28.359Z,3.13
2023-01-25T04:01:29.771Z,2.90
2023-01-25T04:06:31.198Z,2.88
2023-01-25T04:11:32.627Z,2.88
2023-01-25T04:16:36.060Z,3.15
2023-01-25T04:21:37.558Z,2.78
2023-01-25T04:26:38.947Z,2.65
2023-01-25T04:31:40.355Z,2.70
2023-01-25T04:36:41.803Z,2.80
2023-01-25T04:41:44.757Z,2.50
2023-01-25T04:46:46.256Z,2.90
2023-01-25T04:51:47.658Z,2.97
2023-01-25T04:56:49.051Z,2.58
2023-01-25T05:01:50.447Z,2.65
2023-01-25T05:06:51.826Z,2.53
2023-01-25T05:11:53.312Z,2.95
2023-01-25T05:16:54.724Z,2.80
2023-01-25T05:21:59.016Z,3.00
2023-01-25T05:27:00.584Z,2.83
2023-01-25T05:32:15.287Z,2.97
2023-01-25T05:37:18.281Z,2.50
2023-01-25T05:42:19.689Z,2.92
2023-01-25T05:47:21.094Z,2.65
2023-01-25T05:52:22.520Z,2.78
2023-01-25T05:57:23.942Z,2.65
2023-01-25T06:02:25.480Z,2.50
2023-01-25T06:07:26.963Z,2.33
2023-01-25T06:12:29.543Z,2.50
2023-01-25T06:17:31.666Z,2.72
2023-01-25T06:22:33.045Z,2.40
2023-01-25T06:27:34.431Z,2.60
2023-01-25T06:32:35.797Z,2.80
2023-01-25T06:37:37.183Z,2.75
2023-01-25T06:42:38.578Z,2.80
2023-01-25T06:47:40.302Z,2.92
2023-01-25T06:52:41.734Z,2.75
2023-01-25T06:57:43.098Z,2.67
2023-01-25T07:02:44.520Z,1.95
2023-01-25T07:07:46.446Z,1.45
2023-01-25T07:12:47.830Z,1.40
2023-01-25T07:17:49.218Z,1.20
2023-01-25T07:22:50.680Z,1.23
2023-01-25T07:27:52.058Z,1.38
2023-01-25T07:32:54.089Z,1.10
2023-01-25T07:37:55.638Z,1.20
2023-01-25T07:42:57.095Z,0.85
2023-01-25T07:47:58.894Z,1.15
2023-01-25T07:53:00.443Z,0.90
2023-01-25T07:58:01.883Z,1.30
2023-01-25T08:03:03.276Z,0.80
2023-01-25T08:08:04.750Z,0.95
2023-01-25T08:13:06.788Z,1.08
2023-01-25T08:18:08.197Z,1.10
2023-01-25T08:23:09.622Z,0.85
2023-01-25T08:28:11.029Z,1.00
2023-01-25T08:33:12.437Z,1.00
2023-01-25T08:38:13.817Z,1.20
2023-01-25T08:43:15.231Z,1.10
2023-01-25T08:48:16.666Z,1.08
2023-01-25T08:53:18.099Z,1.10
2023-01-25T08:58:21.867Z,0.70
2023-01-25T09:03:23.350Z,0.90
2023-01-25T09:08:24.763Z,1.20
2023-01-25T09:13:26.176Z,0.90
2023-01-25T09:18:28.759Z,1.05
2023-01-25T09:23:31.638Z,1.00
2023-01-25T09:28:33.262Z,0.82
2023-01-25T09:33:35.678Z,1.00
2023-01-25T09:38:37.083Z,1.05
2023-01-25T09:43:45.653Z,1.00
2023-01-25T09:49:09.126Z,1.10
2023-01-25T09:54:13.324Z,1.50
2023-01-25T09:59:16.484Z,0.90
2023-01-25T10:04:19.268Z,0.90
2023-01-25T10:09:39.340Z,0.98
2023-01-25T10:14:40.747Z,0.82
2023-01-25T10:20:07.939Z,0.75
2023-01-25T10:25:27.537Z,0.88
2023-01-25T10:30:30.743Z,0.70
2023-01-25T10:35:39.036Z,0.80
2023-01-25T10:40:45.533Z,0.82
2023-01-25T10:45:48.013Z,0.63
2023-01-25T10:50:51.238Z,0.80
2023-01-25T10:56:10.921Z,0.77
2023-01-25T11:01:25.314Z,0.80
2023-01-25T11:06:33.918Z,0.60
2023-01-25T11:11:36.261Z,0.60
2023-01-25T11:16:38.805Z,0.60
2023-01-25T11:21:40.338Z,0.45
2023-01-25T11:26:41.858Z,0.65
2023-01-25T11:31:50.433Z,0.60
2023-01-25T11:37:19.248Z,0.70
2023-01-25T11:42:46.488Z,0.70
2023-01-25T11:47:59.426Z,0.68
2023-01-25T11:53:42.234Z,0.57
2023-01-25T11:59:08.878Z,0.60
2023-01-25T12:04:23.908Z,0.52
2023-01-25T12:09:44.352Z,0.50
2023-01-25T12:14:58.903Z,0.55
2023-01-25T12:20:21.468Z,0.50
2023-01-25T12:25:30.083Z,0.77
2023-01-25T12:30:51.761Z,0.80
2023-01-25T12:35:54.869Z,0.70
2023-01-25T12:41:04.224Z,0.80
2023-01-25T12:46:13.321Z,0.60
2023-01-25T12:51:15.143Z,0.55
2023-01-25T12:56:28.981Z,0.77
2023-01-25T13:01:35.042Z,0.70
2023-01-25T13:06:50.647Z,0.60
2023-01-25T13:17:09.306Z,0.75
2023-01-25T13:22:11.733Z,0.60
2023-01-25T13:27:29.459Z,0.70
2023-01-25T13:32:33.713Z,0.80
2023-01-25T13:37:35.682Z,0.60
2023-01-25T13:42:38.452Z,1.30
2023-01-25T13:47:39.896Z,1.00
2023-01-25T13:53:01.958Z,1.00
2023-01-25T13:58:28.548Z,0.90
2023-01-25T14:03:31.389Z,0.80
2023-01-25T14:08:32.844Z,0.52
2023-01-25T14:13:34.268Z,0.82
2023-01-25T14:18:37.804Z,0.70
2023-01-25T14:23:39.377Z,0.80
2023-01-25T14:28:45.602Z,0.82
2023-01-25T14:33:54.485Z,0.80
2023-01-25T14:38:56.066Z,0.95
2023-01-25T14:44:05.226Z,0.77
2023-01-25T14:49:09.568Z,0.70
2023-01-25T14:54:26.907Z,0.63
2023-01-25T14:59:32.261Z,0.50
2023-01-25T15:04:35.472Z,0.70
2023-01-25T15:09:42.871Z,0.50
2023-01-25T15:14:49.009Z,0.60
2023-01-25T15:19:53.246Z,0.60
2023-01-25T15:24:58.595Z,0.60
2023-01-25T15:30:00.183Z,0.68
2023-01-25T15:35:02.290Z,0.52
2023-01-25T15:40:03.899Z,0.50
2023-01-25T15:45:06.902Z,0.50
2023-01-25T15:50:16.089Z,0.60
2023-01-25T15:55:17.479Z,0.50
2023-01-25T16:00:21.248Z,0.60
2023-01-25T16:05:22.743Z,0.50
2023-01-25T16:10:24.382Z,0.63
2023-01-25T16:15:25.782Z,0.90
2023-01-25T16:20:27.158Z,0.60
2023-01-25T16:25:28.546Z,0.65
2023-01-25T16:30:32.359Z,0.70
2023-01-25T16:35:33.797Z,0.70
2023-01-25T16:40:39.600Z,0.60
2023-01-25T16:50:42.264Z,0.60
2023-01-25T16:55:43.680Z,0.60
2023-01-25T17:00:46.098Z,0.60
2023-01-25T17:05:47.489Z,0.60
2023-01-25T17:10:49.403Z,0.55
2023-01-25T17:15:50.880Z,0.70
2023-01-25T17:21:03.472Z,0.50
2023-01-25T17:26:05.645Z,0.50
2023-01-25T17:31:17.233Z,0.50
2023-01-25T17:36:18.909Z,0.80
2023-01-25T17:41:20.351Z,0.70
2023-01-25T17:46:27.686Z,0.43
2023-01-25T17:51:29.227Z,0.70
2023-01-25T17:56:30.610Z,0.73
2023-01-25T18:01:32.211Z,0.60
2023-01-25T18:06:33.708Z,0.57
2023-01-25T18:11:36.081Z,0.60
2023-01-25T18:16:38.669Z,0.80
2023-01-25T18:21:41.932Z,0.70
2023-01-25T18:26:43.340Z,0.85
2023-01-25T18:31:45.395Z,0.77
2023-01-25T18:36:48.203Z,0.80
2023-01-25T18:41:49.787Z,0.60
2023-01-25T18:46:51.222Z,0.70
2023-01-25T18:52:08.745Z,0.75
2023-01-25T18:57:13.161Z,0.70
2023-01-25T19:02:15.768Z,0.70
2023-01-25T19:07:17.200Z,0.70
2023-01-25T19:12:18.596Z,0.80
2023-01-25T19:17:19.992Z,0.90
2023-01-25T19:22:21.460Z,0.80
2023-01-25T19:27:22.858Z,0.77
2023-01-25T19:32:24.238Z,0.90
2023-01-25T19:37:25.630Z,0.73
2023-01-25T19:42:27.015Z,0.80
2023-01-25T19:47:28.397Z,0.80
2023-01-25T19:52:29.793Z,0.77
2023-01-25T19:57:32.499Z,0.90
2023-01-25T20:02:33.926Z,0.80
2023-01-25T20:07:35.334Z,0.73
2023-01-25T20:12:36.718Z,0.88
2023-01-25T20:17:38.101Z,0.80
2023-01-25T20:22:39.505Z,0.90
2023-01-25T20:27:40.956Z,0.90
2023-01-25T20:32:42.360Z,1.00
2023-01-25T20:37:43.781Z,0.88
2023-01-25T20:42:45.163Z,1.00
2023-01-25T20:47:46.565Z,0.90
2023-01-25T20:52:48.004Z,1.00
2023-01-25T20:57:49.430Z,1.10
2023-01-25T21:02:50.886Z,0.80
2023-01-25T21:07:52.282Z,0.90
2023-01-25T21:12:53.687Z,1.00
2023-01-25T21:17:55.073Z,0.90
2023-01-25T21:22:56.581Z,1.00
2023-01-25T21:27:58.150Z,0.73
2023-01-25T21:32:59.545Z,1.10
2023-01-25T21:38:00.919Z,1.00
2023-01-25T21:43:02.297Z,1.05
2023-01-25T21:48:03.727Z,0.98
2023-01-25T21:53:05.102Z,1.00
2023-01-25T21:58:06.484Z,0.98
2023-01-25T22:03:08.141Z,1.20
2023-01-25T22:08:10.571Z,1.00
2023-01-25T22:13:13.152Z,0.70
2023-01-25T22:18:14.683Z,0.70
2023-01-25T22:23:16.058Z,0.93
2023-01-25T22:28:17.425Z,1.00
2023-01-25T22:33:21.326Z,1.15
2023-01-25T22:38:22.726Z,1.10
2023-01-25T22:43:24.112Z,1.00
2023-01-25T22:48:25.495Z,0.88
2023-01-25T22:53:26.874Z,1.02
2023-01-25T22:58:28.486Z,0.80
2023-01-25T23:03:29.992Z,1.00
2023-01-25T23:08:33.708Z,0.90
2023-01-25T23:13:36.959Z,1.10
2023-01-25T23:18:50.158Z,0.80
2023-01-25T23:23:51.755Z,1.10
2023-01-25T23:28:54.228Z,1.00
2023-01-25T23:33:58.133Z,1.10
2023-01-25T23:38:59.563Z,1.00
2023-01-25T23:44:01.749Z,1.00
2023-01-25T23:49:03.161Z,1.00
2023-01-25T23:54:04.658Z,1.13
2023-01-25T23:59:07.614Z,1.00
